sensor_id;sensor_type;location;lat;lon;timestamp;P1;durP1;ratioP1;P2;durP2;ratioP2
19402;SDS011;9837;48.888;8.998;2022-08-21T05:00:38;1999.90;;;999.90;;
19402;SDS011;9837;48.888;8.998;2022-08-21T05:03:04;1999.90;;;999.90;;
19402;SDS011;9837;48.888;8.998;2022-08-21T05:05:31;1999.90;;;999.90;;
19402;SDS011;9837;48.888;8.998;2022-08-21T05:07:58;1999.90;;;999.90;;
19402;SDS011;9837;48.888;8.998;2022-08-21T05:10:26;1999.90;;;999.90;;
19402;SDS011;9837;48.888;8.998;2022-08-21T05:25:51;1999.90;;;999.90;;
19402;SDS011;9837;48.888;8.998;2022-08-21T05:40:32;1999.90;;;999.90;;
19402;SDS011;9837;48.888;8.998;2022-08-21T05:42:58;1999.90;;;999.90;;
19402;SDS011;9837;48.888;8.998;2022-08-21T05:50:28;1999.90;;;999.90;;
19402;SDS011;9837;48.888;8.998;2022-08-21T05:53:24;1999.90;;;999.90;;
19402;SDS011;9837;48.888;8.998;2022-08-21T05:55:59;1999.90;;;999.90;;
19402;SDS011;9837;48.888;8.998;2022-08-21T05:58:45;1999.90;;;999.90;;
19402;SDS011;9837;48.888;8.998;2022-08-21T06:01:11;1999.90;;;999.90;;
19402;SDS011;9837;48.888;8.998;2022-08-21T06:03:40;1999.90;;;999.90;;
19402;SDS011;9837;48.888;8.998;2022-08-21T06:06:31;1999.90;;;999.90;;
19402;SDS011;9837;48.888;8.998;2022-08-21T06:08:58;1999.90;;;999.90;;
19402;SDS011;9837;48.888;8.998;2022-08-21T06:12:03;1999.90;;;999.90;;
19402;SDS011;9837;48.888;8.998;2022-08-21T06:14:45;1999.90;;;999.90;;
19402;SDS011;9837;48.888;8.998;2022-08-21T06:19:49;1999.90;;;999.90;;
19402;SDS011;9837;48.888;8.998;2022-08-21T06:22:34;1999.90;;;999.90;;
19402;SDS011;9837;48.888;8.998;2022-08-21T06:27:42;1999.90;;;999.90;;
19402;SDS011;9837;48.888;8.998;2022-08-21T06:30:28;1999.90;;;999.90;;
19402;SDS011;9837;48.888;8.998;2022-08-21T06:35:30;1999.90;;;999.90;;
19402;SDS011;9837;48.888;8.998;2022-08-21T06:37:57;1999.90;;;999.90;;
19402;SDS011;9837;48.888;8.998;2022-08-21T06:40:23;1999.90;;;999.90;;
19402;SDS011;9837;48.888;8.998;2022-08-21T06:43:04;1999.90;;;999.90;;
19402;SDS011;9837;48.888;8.998;2022-08-21T06:45:34;1999.90;;;999.90;;
19402;SDS011;9837;48.888;8.998;2022-08-21T06:48:43;1999.90;;;999.90;;
19402;SDS011;9837;48.888;8.998;2022-08-21T06:51:09;1999.90;;;999.90;;
19402;SDS011;9837;48.888;8.998;2022-08-21T06:53:55;1999.90;;;999.90;;
19402;SDS011;9837;48.888;8.998;2022-08-21T06:56:22;1999.90;;;999.90;;
19402;SDS011;9837;48.888;8.998;2022-08-21T07:01:38;1999.90;;;999.90;;
19402;SDS011;9837;48.888;8.998;2022-08-21T07:07:20;1999.90;;;999.90;;
19402;SDS011;9837;48.888;8.998;2022-08-21T07:20:33;1999.90;;;999.90;;
19402;SDS011;9837;48.888;8.998;2022-08-21T07:23:55;1999.90;;;999.90;;
19402;SDS011;9837;48.888;8.998;2022-08-21T07:26:44;1999.90;;;999.90;;
19402;SDS011;9837;48.888;8.998;2022-08-21T07:29:37;1999.90;;;999.90;;
19402;SDS011;9837;48.888;8.998;2022-08-21T07:35:38;1999.90;;;999.90;;
19402;SDS011;9837;48.888;8.998;2022-08-21T07:38:23;1999.90;;;999.90;;
19402;SDS011;9837;48.888;8.998;2022-08-21T07:49:58;1999.90;;;999.90;;
19402;SDS011;9837;48.888;8.998;2022-08-21T08:05:52;1999.90;;;999.90;;
19402;SDS011;9837;48.888;8.998;2022-08-21T08:08:39;1999.90;;;999.90;;
19402;SDS011;9837;48.888;8.998;2022-08-21T08:11:05;1999.90;;;999.90;;
19402;SDS011;9837;48.888;8.998;2022-08-21T08:13:37;1999.90;;;999.90;;
19402;SDS011;9837;48.888;8.998;2022-08-21T08:31:54;1999.90;;;999.90;;
19402;SDS011;9837;48.888;8.998;2022-08-21T08:39:58;1999.90;;;999.90;;
19402;SDS011;9837;48.888;8.998;2022-08-21T08:45:01;1999.90;;;999.90;;
19402;SDS011;9837;48.888;8.998;2022-08-21T08:52:41;1999.90;;;999.90;;
19402;SDS011;9837;48.888;8.998;2022-08-21T09:05:50;1999.90;;;999.90;;
19402;SDS011;9837;48.888;8.998;2022-08-21T09:21:35;1999.90;;;999.90;;
19402;SDS011;9837;48.888;8.998;2022-08-21T09:24:17;1999.90;;;999.90;;
19402;SDS011;9837;48.888;8.998;2022-08-21T09:34:03;1999.90;;;999.90;;
19402;SDS011;9837;48.888;8.998;2022-08-21T09:36:56;1999.90;;;999.90;;
19402;SDS011;9837;48.888;8.998;2022-08-21T09:46:20;1999.90;;;999.90;;
19402;SDS011;9837;48.888;8.998;2022-08-21T09:49:12;1999.90;;;999.90;;
19402;SDS011;9837;48.888;8.998;2022-08-21T09:52:03;1999.90;;;999.90;;
19402;SDS011;9837;48.888;8.998;2022-08-21T09:58:31;1999.90;;;999.90;;
19402;SDS011;9837;48.888;8.998;2022-08-21T10:01:23;1999.90;;;999.90;;
19402;SDS011;9837;48.888;8.998;2022-08-21T10:04:07;1999.90;;;999.90;;
19402;SDS011;9837;48.888;8.998;2022-08-21T10:06:40;1999.90;;;999.90;;
19402;SDS011;9837;48.888;8.998;2022-08-21T10:12:23;1999.90;;;999.90;;
19402;SDS011;9837;48.888;8.998;2022-08-21T10:31:03;1999.90;;;999.90;;
19402;SDS011;9837;48.888;8.998;2022-08-21T10:54:26;1999.90;;;999.90;;
19402;SDS011;9837;48.888;8.998;2022-08-21T11:00:43;1999.90;;;999.90;;
19402;SDS011;9837;48.888;8.998;2022-08-21T11:06:25;1999.90;;;999.90;;
19402;SDS011;9837;48.888;8.998;2022-08-21T11:17:11;1999.90;;;999.90;;
19402;SDS011;9837;48.888;8.998;2022-08-21T11:19:47;1999.90;;;999.90;;
19402;SDS011;9837;48.888;8.998;2022-08-21T11:22:24;1999.90;;;999.90;;
19402;SDS011;9837;48.888;8.998;2022-08-21T11:27:40;1999.90;;;999.90;;
19402;SDS011;9837;48.888;8.998;2022-08-21T11:30:12;1999.90;;;999.90;;
19402;SDS011;9837;48.888;8.998;2022-08-21T11:43:48;1999.90;;;999.90;;
19402;SDS011;9837;48.888;8.998;2022-08-21T11:54:41;1999.90;;;999.90;;
19402;SDS011;9837;48.888;8.998;2022-08-21T11:57:31;1999.90;;;999.90;;
19402;SDS011;9837;48.888;8.998;2022-08-21T12:00:00;1999.90;;;999.90;;
19402;SDS011;9837;48.888;8.998;2022-08-21T12:02:41;1999.90;;;999.90;;
19402;SDS011;9837;48.888;8.998;2022-08-21T12:05:11;1999.90;;;999.90;;
19402;SDS011;9837;48.888;8.998;2022-08-21T12:08:03;1999.90;;;999.90;;
19402;SDS011;9837;48.888;8.998;2022-08-21T12:10:35;1999.90;;;999.90;;
19402;SDS011;9837;48.888;8.998;2022-08-21T12:13:08;1999.90;;;999.90;;
19402;SDS011;9837;48.888;8.998;2022-08-21T12:15:38;1999.90;;;999.90;;
19402;SDS011;9837;48.888;8.998;2022-08-21T12:18:24;1999.90;;;999.90;;
19402;SDS011;9837;48.888;8.998;2022-08-21T12:21:00;1999.90;;;999.90;;
19402;SDS011;9837;48.888;8.998;2022-08-21T12:24:00;1999.90;;;999.90;;
19402;SDS011;9837;48.888;8.998;2022-08-21T12:31:55;1999.90;;;999.90;;
19402;SDS011;9837;48.888;8.998;2022-08-21T12:34:46;1999.90;;;999.90;;
19402;SDS011;9837;48.888;8.998;2022-08-21T12:37:15;1999.90;;;999.90;;
19402;SDS011;9837;48.888;8.998;2022-08-21T12:39:44;1999.90;;;999.90;;
19402;SDS011;9837;48.888;8.998;2022-08-21T12:42:17;1999.90;;;999.90;;
19402;SDS011;9837;48.888;8.998;2022-08-21T12:44:50;1999.90;;;999.90;;
19402;SDS011;9837;48.888;8.998;2022-08-21T12:47:34;1999.90;;;999.90;;
19402;SDS011;9837;48.888;8.998;2022-08-21T12:50:11;1999.90;;;999.90;;
19402;SDS011;9837;48.888;8.998;2022-08-21T12:52:44;1999.90;;;999.90;;
19402;SDS011;9837;48.888;8.998;2022-08-21T12:55:25;1999.90;;;999.90;;
19402;SDS011;9837;48.888;8.998;2022-08-21T12:57:52;1999.90;;;999.90;;
19402;SDS011;9837;48.888;8.998;2022-08-21T13:00:20;1999.90;;;999.90;;
19402;SDS011;9837;48.888;8.998;2022-08-21T13:02:48;1999.90;;;999.90;;
19402;SDS011;9837;48.888;8.998;2022-08-21T13:05:16;1999.90;;;999.90;;
19402;SDS011;9837;48.888;8.998;2022-08-21T13:07:50;1999.90;;;999.90;;
19402;SDS011;9837;48.888;8.998;2022-08-21T13:10:18;1999.90;;;999.90;;
19402;SDS011;9837;48.888;8.998;2022-08-21T13:12:46;1999.90;;;999.90;;
19402;SDS011;9837;48.888;8.998;2022-08-21T13:15:12;1999.90;;;999.90;;
19402;SDS011;9837;48.888;8.998;2022-08-21T13:17:41;1999.90;;;999.90;;
19402;SDS011;9837;48.888;8.998;2022-08-21T13:20:21;1999.90;;;999.90;;
19402;SDS011;9837;48.888;8.998;2022-08-21T13:22:52;1999.90;;;999.90;;
19402;SDS011;9837;48.888;8.998;2022-08-21T13:25:18;1999.90;;;999.90;;
19402;SDS011;9837;48.888;8.998;2022-08-21T13:27:57;1999.90;;;999.90;;
19402;SDS011;9837;48.888;8.998;2022-08-21T13:30:23;1999.90;;;999.90;;
19402;SDS011;9837;48.888;8.998;2022-08-21T13:32:54;1999.90;;;999.90;;
19402;SDS011;9837;48.888;8.998;2022-08-21T13:35:25;1999.90;;;999.90;;
19402;SDS011;9837;48.888;8.998;2022-08-21T13:37:53;1999.90;;;999.90;;
19402;SDS011;9837;48.888;8.998;2022-08-21T13:40:24;1999.90;;;999.90;;
19402;SDS011;9837;48.888;8.998;2022-08-21T13:42:53;1999.90;;;999.90;;
19402;SDS011;9837;48.888;8.998;2022-08-21T13:45:24;1999.90;;;999.90;;
19402;SDS011;9837;48.888;8.998;2022-08-21T13:47:52;1999.90;;;999.90;;
19402;SDS011;9837;48.888;8.998;2022-08-21T13:50:20;1999.90;;;999.90;;
19402;SDS011;9837;48.888;8.998;2022-08-21T13:52:49;1999.90;;;999.90;;
19402;SDS011;9837;48.888;8.998;2022-08-21T13:55:37;1999.90;;;999.90;;
19402;SDS011;9837;48.888;8.998;2022-08-21T13:58:07;1999.90;;;999.90;;
19402;SDS011;9837;48.888;8.998;2022-08-21T14:00:35;1999.90;;;999.90;;
19402;SDS011;9837;48.888;8.998;2022-08-21T14:03:12;1999.90;;;999.90;;
19402;SDS011;9837;48.888;8.998;2022-08-21T14:06:01;1999.90;;;999.90;;
19402;SDS011;9837;48.888;8.998;2022-08-21T14:08:39;1999.90;;;999.90;;
19402;SDS011;9837;48.888;8.998;2022-08-21T14:11:10;1999.90;;;999.90;;
19402;SDS011;9837;48.888;8.998;2022-08-21T14:13:40;1999.90;;;999.90;;
19402;SDS011;9837;48.888;8.998;2022-08-21T14:16:13;1999.90;;;999.90;;
19402;SDS011;9837;48.888;8.998;2022-08-21T14:18:49;1999.90;;;999.90;;
19402;SDS011;9837;48.888;8.998;2022-08-21T14:21:34;1999.90;;;999.90;;
19402;SDS011;9837;48.888;8.998;2022-08-21T14:24:06;1999.90;;;999.90;;
19402;SDS011;9837;48.888;8.998;2022-08-21T14:26:33;1999.90;;;999.90;;
19402;SDS011;9837;48.888;8.998;2022-08-21T14:29:00;1999.90;;;999.90;;
19402;SDS011;9837;48.888;8.998;2022-08-21T14:31:30;1999.90;;;999.90;;
19402;SDS011;9837;48.888;8.998;2022-08-21T14:33:57;1999.90;;;999.90;;
19402;SDS011;9837;48.888;8.998;2022-08-21T14:36:23;1999.90;;;999.90;;
19402;SDS011;9837;48.888;8.998;2022-08-21T14:38:49;1999.90;;;999.90;;
19402;SDS011;9837;48.888;8.998;2022-08-21T14:41:16;1999.90;;;999.90;;
19402;SDS011;9837;48.888;8.998;2022-08-21T14:43:44;1999.90;;;999.90;;
19402;SDS011;9837;48.888;8.998;2022-08-21T14:46:12;1999.90;;;999.90;;
19402;SDS011;9837;48.888;8.998;2022-08-21T14:48:44;1999.90;;;999.90;;
19402;SDS011;9837;48.888;8.998;2022-08-21T14:51:11;1999.90;;;999.90;;
19402;SDS011;9837;48.888;8.998;2022-08-21T14:53:37;1999.90;;;999.90;;
19402;SDS011;9837;48.888;8.998;2022-08-21T14:56:03;1999.90;;;999.90;;
19402;SDS011;9837;48.888;8.998;2022-08-21T14:58:35;1999.90;;;999.90;;
19402;SDS011;9837;48.888;8.998;2022-08-21T15:01:05;1999.90;;;999.90;;
19402;SDS011;9837;48.888;8.998;2022-08-21T15:03:32;1999.90;;;999.90;;
19402;SDS011;9837;48.888;8.998;2022-08-21T15:05:58;1999.90;;;999.90;;
19402;SDS011;9837;48.888;8.998;2022-08-21T15:08:24;1999.90;;;999.90;;
19402;SDS011;9837;48.888;8.998;2022-08-21T15:10:51;1999.90;;;999.90;;
19402;SDS011;9837;48.888;8.998;2022-08-21T15:13:18;1999.90;;;999.90;;
19402;SDS011;9837;48.888;8.998;2022-08-21T15:15:45;1999.90;;;999.90;;
19402;SDS011;9837;48.888;8.998;2022-08-21T15:18:13;1999.90;;;999.90;;
19402;SDS011;9837;48.888;8.998;2022-08-21T15:20:39;1999.90;;;999.90;;
19402;SDS011;9837;48.888;8.998;2022-08-21T15:23:05;1999.90;;;999.90;;
19402;SDS011;9837;48.888;8.998;2022-08-21T15:25:32;1999.90;;;999.90;;
19402;SDS011;9837;48.888;8.998;2022-08-21T15:27:59;1999.90;;;999.90;;
19402;SDS011;9837;48.888;8.998;2022-08-21T15:30:26;1999.90;;;999.90;;
19402;SDS011;9837;48.888;8.998;2022-08-21T15:32:54;1999.90;;;999.90;;
19402;SDS011;9837;48.888;8.998;2022-08-21T15:35:19;1999.90;;;999.90;;
19402;SDS011;9837;48.888;8.998;2022-08-21T15:37:45;1999.90;;;999.90;;
19402;SDS011;9837;48.888;8.998;2022-08-21T15:40:11;1999.90;;;999.90;;
19402;SDS011;9837;48.888;8.998;2022-08-21T15:42:39;1999.90;;;999.90;;
19402;SDS011;9837;48.888;8.998;2022-08-21T15:45:06;1999.90;;;999.90;;
19402;SDS011;9837;48.888;8.998;2022-08-21T15:47:34;1999.90;;;999.90;;
19402;SDS011;9837;48.888;8.998;2022-08-21T15:50:01;1999.90;;;999.90;;
19402;SDS011;9837;48.888;8.998;2022-08-21T15:52:27;1999.90;;;999.90;;
19402;SDS011;9837;48.888;8.998;2022-08-21T15:54:53;1999.90;;;999.90;;
19402;SDS011;9837;48.888;8.998;2022-08-21T15:57:20;1999.90;;;999.90;;
19402;SDS011;9837;48.888;8.998;2022-08-21T15:59:53;1566.47;;;812.55;;
19402;SDS011;9837;48.888;8.998;2022-08-21T16:02:23;1999.90;;;999.90;;
19402;SDS011;9837;48.888;8.998;2022-08-21T16:04:51;1999.90;;;999.90;;
19402;SDS011;9837;48.888;8.998;2022-08-21T16:07:17;1553.57;;;800.75;;
19402;SDS011;9837;48.888;8.998;2022-08-21T16:09:43;1999.90;;;999.90;;
19402;SDS011;9837;48.888;8.998;2022-08-21T16:12:09;1999.90;;;999.90;;
19402;SDS011;9837;48.888;8.998;2022-08-21T16:14:52;1999.90;;;999.90;;
19402;SDS011;9837;48.888;8.998;2022-08-21T16:17:18;1999.90;;;999.90;;
19402;SDS011;9837;48.888;8.998;2022-08-21T16:19:46;1999.90;;;999.90;;
19402;SDS011;9837;48.888;8.998;2022-08-21T16:22:11;1137.32;;;629.50;;
19402;SDS011;9837;48.888;8.998;2022-08-21T16:24:37;1999.90;;;999.90;;
19402;SDS011;9837;48.888;8.998;2022-08-21T16:27:04;1999.90;;;999.90;;
19402;SDS011;9837;48.888;8.998;2022-08-21T16:29:32;1549.00;;;796.47;;
19402;SDS011;9837;48.888;8.998;2022-08-21T16:31:59;1999.90;;;999.90;;
19402;SDS011;9837;48.888;8.998;2022-08-21T16:34:25;1999.90;;;999.90;;
19402;SDS011;9837;48.888;8.998;2022-08-21T16:36:52;1565.85;;;812.20;;
19402;SDS011;9837;48.888;8.998;2022-08-21T16:39:18;1999.90;;;999.90;;
19402;SDS011;9837;48.888;8.998;2022-08-21T16:41:44;1999.90;;;999.90;;
19402;SDS011;9837;48.888;8.998;2022-08-21T16:44:10;1999.90;;;999.90;;
19402;SDS011;9837;48.888;8.998;2022-08-21T16:46:37;1999.90;;;999.90;;
19402;SDS011;9837;48.888;8.998;2022-08-21T16:49:04;1999.90;;;999.90;;
19402;SDS011;9837;48.888;8.998;2022-08-21T16:51:30;1999.90;;;999.90;;
19402;SDS011;9837;48.888;8.998;2022-08-21T16:53:56;1999.90;;;999.90;;
19402;SDS011;9837;48.888;8.998;2022-08-21T16:56:22;1999.90;;;999.90;;
19402;SDS011;9837;48.888;8.998;2022-08-21T16:58:48;1124.28;;;617.38;;
19402;SDS011;9837;48.888;8.998;2022-08-21T17:01:19;1569.43;;;815.47;;
19402;SDS011;9837;48.888;8.998;2022-08-21T17:03:49;1999.90;;;999.90;;
19402;SDS011;9837;48.888;8.998;2022-08-21T17:06:18;1556.18;;;803.08;;
19402;SDS011;9837;48.888;8.998;2022-08-21T17:08:46;213.07;;;201.77;;
19402;SDS011;9837;48.888;8.998;2022-08-21T17:11:18;1112.72;;;606.72;;
19402;SDS011;9837;48.888;8.998;2022-08-21T17:13:56;1999.90;;;999.90;;
19402;SDS011;9837;48.888;8.998;2022-08-21T17:16:24;1560.55;;;807.17;;
19402;SDS011;9837;48.888;8.998;2022-08-21T17:18:50;224.23;;;212.15;;
19402;SDS011;9837;48.888;8.998;2022-08-21T17:21:16;195.45;;;184.93;;
19402;SDS011;9837;48.888;8.998;2022-08-21T17:23:43;1549.63;;;796.90;;
19402;SDS011;9837;48.888;8.998;2022-08-21T17:26:09;1542.15;;;789.95;;
19402;SDS011;9837;48.888;8.998;2022-08-21T17:28:35;1545.50;;;793.13;;
19402;SDS011;9837;48.888;8.998;2022-08-21T17:31:02;625.72;;;369.17;;
19402;SDS011;9837;48.888;8.998;2022-08-21T17:33:34;1538.63;;;786.65;;
19402;SDS011;9837;48.888;8.998;2022-08-21T17:36:04;1085.57;;;581.10;;
19402;SDS011;9837;48.888;8.998;2022-08-21T17:38:30;150.52;;;142.65;;
19402;SDS011;9837;48.888;8.998;2022-08-21T17:40:56;152.80;;;144.23;;
19402;SDS011;9837;48.888;8.998;2022-08-21T17:43:22;156.15;;;147.95;;
19402;SDS011;9837;48.888;8.998;2022-08-21T17:45:48;140.90;;;133.85;;
19402;SDS011;9837;48.888;8.998;2022-08-21T17:48:14;1073.72;;;569.97;;
19402;SDS011;9837;48.888;8.998;2022-08-21T17:50:40;143.48;;;136.40;;
19402;SDS011;9837;48.888;8.998;2022-08-21T17:53:06;141.10;;;134.20;;
19402;SDS011;9837;48.888;8.998;2022-08-21T17:55:32;1534.60;;;782.83;;
19402;SDS011;9837;48.888;8.998;2022-08-21T17:57:58;144.57;;;136.73;;
19402;SDS011;9837;48.888;8.998;2022-08-21T18:00:26;140.20;;;133.20;;
19402;SDS011;9837;48.888;8.998;2022-08-21T18:02:57;1379.80;;;710.70;;
19402;SDS011;9837;48.888;8.998;2022-08-21T18:05:28;123.88;;;117.25;;
19402;SDS011;9837;48.888;8.998;2022-08-21T18:07:54;1377.50;;;708.53;;
19402;SDS011;9837;48.888;8.998;2022-08-21T18:10:20;111.70;;;106.03;;
19402;SDS011;9837;48.888;8.998;2022-08-21T18:12:46;1999.90;;;999.90;;
19402;SDS011;9837;48.888;8.998;2022-08-21T18:15:13;1366.97;;;698.57;;
19402;SDS011;9837;48.888;8.998;2022-08-21T18:17:41;1999.90;;;999.90;;
19402;SDS011;9837;48.888;8.998;2022-08-21T18:20:11;1999.90;;;999.90;;
19402;SDS011;9837;48.888;8.998;2022-08-21T18:22:39;1999.90;;;999.90;;
19402;SDS011;9837;48.888;8.998;2022-08-21T18:25:05;1999.90;;;999.90;;
19402;SDS011;9837;48.888;8.998;2022-08-21T18:27:32;1999.90;;;999.90;;
19402;SDS011;9837;48.888;8.998;2022-08-21T18:29:58;1999.90;;;999.90;;
19402;SDS011;9837;48.888;8.998;2022-08-21T18:32:25;1999.90;;;999.90;;
19402;SDS011;9837;48.888;8.998;2022-08-21T18:34:53;1999.90;;;999.90;;
19402;SDS011;9837;48.888;8.998;2022-08-21T18:37:20;1999.90;;;999.90;;
19402;SDS011;9837;48.888;8.998;2022-08-21T18:39:46;1999.90;;;999.90;;
19402;SDS011;9837;48.888;8.998;2022-08-21T18:42:12;1999.90;;;999.90;;
19402;SDS011;9837;48.888;8.998;2022-08-21T18:44:41;1999.90;;;999.90;;
19402;SDS011;9837;48.888;8.998;2022-08-21T18:47:20;1999.90;;;999.90;;
19402;SDS011;9837;48.888;8.998;2022-08-21T18:49:48;1999.90;;;999.90;;
19402;SDS011;9837;48.888;8.998;2022-08-21T18:52:14;1999.90;;;999.90;;
19402;SDS011;9837;48.888;8.998;2022-08-21T18:54:40;1999.90;;;999.90;;
19402;SDS011;9837;48.888;8.998;2022-08-21T18:57:05;1999.90;;;999.90;;
19402;SDS011;9837;48.888;8.998;2022-08-21T18:59:32;1999.90;;;999.90;;
19402;SDS011;9837;48.888;8.998;2022-08-21T19:01:58;1999.90;;;999.90;;
19402;SDS011;9837;48.888;8.998;2022-08-21T19:04:24;1999.90;;;999.90;;
19402;SDS011;9837;48.888;8.998;2022-08-21T19:06:50;1999.90;;;999.90;;
19402;SDS011;9837;48.888;8.998;2022-08-21T19:09:16;1999.90;;;999.90;;
19402;SDS011;9837;48.888;8.998;2022-08-21T19:11:41;1999.90;;;999.90;;
19402;SDS011;9837;48.888;8.998;2022-08-21T19:14:08;1999.90;;;999.90;;
19402;SDS011;9837;48.888;8.998;2022-08-21T19:16:37;1999.90;;;999.90;;
19402;SDS011;9837;48.888;8.998;2022-08-21T19:19:04;1999.90;;;999.90;;
19402;SDS011;9837;48.888;8.998;2022-08-21T19:21:30;1999.90;;;999.90;;
19402;SDS011;9837;48.888;8.998;2022-08-21T19:23:56;1999.90;;;999.90;;
19402;SDS011;9837;48.888;8.998;2022-08-21T19:26:22;1999.90;;;999.90;;
19402;SDS011;9837;48.888;8.998;2022-08-21T19:28:52;1999.90;;;999.90;;
19402;SDS011;9837;48.888;8.998;2022-08-21T19:31:24;1999.90;;;999.90;;
19402;SDS011;9837;48.888;8.998;2022-08-21T19:34:03;1999.90;;;999.90;;
19402;SDS011;9837;48.888;8.998;2022-08-21T19:36:32;1999.90;;;999.90;;
19402;SDS011;9837;48.888;8.998;2022-08-21T19:38:58;1999.90;;;999.90;;
19402;SDS011;9837;48.888;8.998;2022-08-21T19:41:25;1999.90;;;999.90;;
19402;SDS011;9837;48.888;8.998;2022-08-21T19:43:55;1999.90;;;999.90;;
19402;SDS011;9837;48.888;8.998;2022-08-21T19:46:24;1999.90;;;999.90;;
19402;SDS011;9837;48.888;8.998;2022-08-21T19:48:51;1999.90;;;999.90;;
19402;SDS011;9837;48.888;8.998;2022-08-21T19:51:18;1999.90;;;999.90;;
19402;SDS011;9837;48.888;8.998;2022-08-21T19:53:43;1999.90;;;999.90;;
19402;SDS011;9837;48.888;8.998;2022-08-21T19:56:11;1999.90;;;999.90;;
19402;SDS011;9837;48.888;8.998;2022-08-21T19:58:42;1999.90;;;999.90;;
19402;SDS011;9837;48.888;8.998;2022-08-21T20:01:11;1999.90;;;999.90;;
19402;SDS011;9837;48.888;8.998;2022-08-21T20:03:36;1999.90;;;999.90;;
19402;SDS011;9837;48.888;8.998;2022-08-21T20:06:02;1999.90;;;999.90;;
19402;SDS011;9837;48.888;8.998;2022-08-21T20:08:29;1999.90;;;999.90;;
19402;SDS011;9837;48.888;8.998;2022-08-21T20:10:56;1999.90;;;999.90;;
19402;SDS011;9837;48.888;8.998;2022-08-21T20:13:24;1999.90;;;999.90;;
19402;SDS011;9837;48.888;8.998;2022-08-21T20:15:51;1999.90;;;999.90;;
19402;SDS011;9837;48.888;8.998;2022-08-21T20:18:18;1999.90;;;999.90;;
19402;SDS011;9837;48.888;8.998;2022-08-21T20:20:44;1999.90;;;999.90;;
19402;SDS011;9837;48.888;8.998;2022-08-21T20:23:12;1999.90;;;999.90;;
19402;SDS011;9837;48.888;8.998;2022-08-21T20:25:39;1999.90;;;999.90;;
19402;SDS011;9837;48.888;8.998;2022-08-21T20:28:06;1999.90;;;999.90;;
19402;SDS011;9837;48.888;8.998;2022-08-21T20:30:32;1999.90;;;999.90;;
19402;SDS011;9837;48.888;8.998;2022-08-21T20:32:58;1999.90;;;999.90;;
19402;SDS011;9837;48.888;8.998;2022-08-21T20:35:24;1999.90;;;999.90;;
19402;SDS011;9837;48.888;8.998;2022-08-21T20:37:50;1999.90;;;999.90;;
19402;SDS011;9837;48.888;8.998;2022-08-21T20:40:15;1999.90;;;999.90;;
19402;SDS011;9837;48.888;8.998;2022-08-21T20:42:44;1999.90;;;999.90;;
19402;SDS011;9837;48.888;8.998;2022-08-21T20:45:16;1999.90;;;999.90;;
19402;SDS011;9837;48.888;8.998;2022-08-21T20:47:58;1999.90;;;999.90;;
19402;SDS011;9837;48.888;8.998;2022-08-21T20:50:26;1999.90;;;999.90;;
19402;SDS011;9837;48.888;8.998;2022-08-21T20:52:56;1999.90;;;999.90;;
19402;SDS011;9837;48.888;8.998;2022-08-21T20:55:28;1999.90;;;999.90;;
19402;SDS011;9837;48.888;8.998;2022-08-21T20:58:05;1999.90;;;999.90;;
19402;SDS011;9837;48.888;8.998;2022-08-21T21:00:34;1999.90;;;999.90;;
19402;SDS011;9837;48.888;8.998;2022-08-21T21:03:08;1999.90;;;999.90;;
19402;SDS011;9837;48.888;8.998;2022-08-21T21:05:50;1999.90;;;999.90;;
19402;SDS011;9837;48.888;8.998;2022-08-21T21:08:22;1999.90;;;999.90;;
19402;SDS011;9837;48.888;8.998;2022-08-21T21:13:29;1999.90;;;999.90;;
19402;SDS011;9837;48.888;8.998;2022-08-21T21:16:05;1999.90;;;999.90;;
19402;SDS011;9837;48.888;8.998;2022-08-21T21:21:38;1999.90;;;999.90;;
19402;SDS011;9837;48.888;8.998;2022-08-21T21:24:11;1999.90;;;999.90;;
19402;SDS011;9837;48.888;8.998;2022-08-21T21:29:21;1999.90;;;999.90;;
19402;SDS011;9837;48.888;8.998;2022-08-21T21:31:50;1999.90;;;999.90;;
19402;SDS011;9837;48.888;8.998;2022-08-21T21:34:17;1999.90;;;999.90;;
19402;SDS011;9837;48.888;8.998;2022-08-21T21:39:41;1999.90;;;999.90;;
19402;SDS011;9837;48.888;8.998;2022-08-21T21:56:47;1999.90;;;999.90;;
